sensor_id;sensor_type;location;lat;lon;timestamp;temperature;humidity
1351;DHT22;669;50.206;9.998;2023-09-19T00:01:42;16.70;28.00
1351;DHT22;669;50.206;9.998;2023-09-19T00:04:11;16.70;27.40
1351;DHT22;669;50.206;9.998;2023-09-19T00:06:39;16.60;28.10
1351;DHT22;669;50.206;9.998;2023-09-19T00:09:08;16.60;27.80
1351;DHT22;669;50.206;9.998;2023-09-19T00:11:37;16.60;28.10
1351;DHT22;669;50.206;9.998;2023-09-19T00:14:05;16.60;28.10
1351;DHT22;669;50.206;9.998;2023-09-19T00:16:35;16.60;28.10
1351;DHT22;669;50.206;9.998;2023-09-19T00:19:05;16.50;28.00
1351;DHT22;669;50.206;9.998;2023-09-19T00:21:35;16.50;28.40
1351;DHT22;669;50.206;9.998;2023-09-19T00:24:04;16.50;28.80
1351;DHT22;669;50.206;9.998;2023-09-19T00:26:33;16.40;28.90
1351;DHT22;669;50.206;9.998;2023-09-19T00:29:01;16.40;29.40
1351;DHT22;669;50.206;9.998;2023-09-19T00:31:35;16.30;29.80
1351;DHT22;669;50.206;9.998;2023-09-19T00:34:05;16.20;29.90
1351;DHT22;669;50.206;9.998;2023-09-19T00:36:37;16.20;30.30
1351;DHT22;669;50.206;9.998;2023-09-19T00:39:06;16.10;31.10
1351;DHT22;669;50.206;9.998;2023-09-19T00:41:35;16.00;32.20
1351;DHT22;669;50.206;9.998;2023-09-19T00:44:03;16.00;33.70
1351;DHT22;669;50.206;9.998;2023-09-19T00:46:32;15.90;34.40
1351;DHT22;669;50.206;9.998;2023-09-19T00:49:00;15.90;34.90
1351;DHT22;669;50.206;9.998;2023-09-19T00:51:30;15.90;35.80
1351;DHT22;669;50.206;9.998;2023-09-19T00:53:58;16.00;36.70
1351;DHT22;669;50.206;9.998;2023-09-19T00:56:26;16.00;36.40
1351;DHT22;669;50.206;9.998;2023-09-19T00:58:54;16.10;35.50
1351;DHT22;669;50.206;9.998;2023-09-19T01:01:23;16.10;35.30
1351;DHT22;669;50.206;9.998;2023-09-19T01:03:52;16.10;34.50
1351;DHT22;669;50.206;9.998;2023-09-19T01:06:20;16.20;34.00
1351;DHT22;669;50.206;9.998;2023-09-19T01:08:50;16.20;33.70
1351;DHT22;669;50.206;9.998;2023-09-19T01:11:26;16.20;33.60
1351;DHT22;669;50.206;9.998;2023-09-19T01:14:01;16.30;33.60
1351;DHT22;669;50.206;9.998;2023-09-19T01:16:35;16.30;32.70
1351;DHT22;669;50.206;9.998;2023-09-19T01:19:20;16.30;32.10
1351;DHT22;669;50.206;9.998;2023-09-19T01:21:59;16.30;31.80
1351;DHT22;669;50.206;9.998;2023-09-19T01:27:59;16.30;31.10
1351;DHT22;669;50.206;9.998;2023-09-19T01:30:40;16.40;30.60
1351;DHT22;669;50.206;9.998;2023-09-19T01:33:11;16.40;31.00
1351;DHT22;669;50.206;9.998;2023-09-19T01:35:39;16.50;31.00
1351;DHT22;669;50.206;9.998;2023-09-19T01:38:07;16.50;30.50
1351;DHT22;669;50.206;9.998;2023-09-19T01:40:40;16.50;30.30
1351;DHT22;669;50.206;9.998;2023-09-19T01:43:12;16.50;30.00
1351;DHT22;669;50.206;9.998;2023-09-19T01:45:50;16.50;28.90
1351;DHT22;669;50.206;9.998;2023-09-19T01:48:25;16.50;29.00
1351;DHT22;669;50.206;9.998;2023-09-19T01:51:00;16.40;30.00
1351;DHT22;669;50.206;9.998;2023-09-19T01:53:33;16.40;29.20
1351;DHT22;669;50.206;9.998;2023-09-19T01:56:05;16.40;29.30
1351;DHT22;669;50.206;9.998;2023-09-19T01:58:42;16.50;29.60
1351;DHT22;669;50.206;9.998;2023-09-19T02:01:22;16.40;29.90
1351;DHT22;669;50.206;9.998;2023-09-19T02:03:53;16.50;29.90
1351;DHT22;669;50.206;9.998;2023-09-19T02:06:23;16.40;29.60
1351;DHT22;669;50.206;9.998;2023-09-19T02:08:52;16.40;29.80
1351;DHT22;669;50.206;9.998;2023-09-19T02:11:21;16.50;29.60
1351;DHT22;669;50.206;9.998;2023-09-19T02:13:50;16.50;29.60
1351;DHT22;669;50.206;9.998;2023-09-19T02:16:22;16.50;29.40
1351;DHT22;669;50.206;9.998;2023-09-19T02:18:50;16.50;29.10
1351;DHT22;669;50.206;9.998;2023-09-19T02:21:18;16.50;29.20
1351;DHT22;669;50.206;9.998;2023-09-19T02:23:48;16.50;29.10
1351;DHT22;669;50.206;9.998;2023-09-19T02:26:18;16.60;28.10
1351;DHT22;669;50.206;9.998;2023-09-19T02:28:47;16.60;28.10
1351;DHT22;669;50.206;9.998;2023-09-19T02:31:15;16.60;28.10
1351;DHT22;669;50.206;9.998;2023-09-19T02:33:44;16.60;28.10
1351;DHT22;669;50.206;9.998;2023-09-19T02:36:13;16.60;28.10
1351;DHT22;669;50.206;9.998;2023-09-19T02:38:44;16.60;28.10
1351;DHT22;669;50.206;9.998;2023-09-19T02:41:12;16.60;28.10
1351;DHT22;669;50.206;9.998;2023-09-19T02:43:40;16.60;27.60
1351;DHT22;669;50.206;9.998;2023-09-19T02:46:09;16.60;27.80
1351;DHT22;669;50.206;9.998;2023-09-19T02:48:38;16.60;27.00
1351;DHT22;669;50.206;9.998;2023-09-19T02:51:07;16.60;27.50
1351;DHT22;669;50.206;9.998;2023-09-19T02:53:35;16.60;28.10
1351;DHT22;669;50.206;9.998;2023-09-19T02:56:04;16.60;28.20
1351;DHT22;669;50.206;9.998;2023-09-19T02:58:32;16.60;28.10
1351;DHT22;669;50.206;9.998;2023-09-19T03:01:08;16.60;28.90
1351;DHT22;669;50.206;9.998;2023-09-19T03:03:36;16.60;30.00
1351;DHT22;669;50.206;9.998;2023-09-19T03:06:07;16.50;36.40
1351;DHT22;669;50.206;9.998;2023-09-19T03:08:36;16.50;36.70
1351;DHT22;669;50.206;9.998;2023-09-19T03:11:06;16.40;40.10
1351;DHT22;669;50.206;9.998;2023-09-19T03:13:38;16.30;43.60
1351;DHT22;669;50.206;9.998;2023-09-19T03:16:07;16.20;45.70
1351;DHT22;669;50.206;9.998;2023-09-19T03:18:35;16.10;47.60
1351;DHT22;669;50.206;9.998;2023-09-19T03:21:03;16.00;49.90
1351;DHT22;669;50.206;9.998;2023-09-19T03:23:32;16.00;52.00
1351;DHT22;669;50.206;9.998;2023-09-19T03:26:00;15.90;54.40
1351;DHT22;669;50.206;9.998;2023-09-19T03:28:28;15.80;55.40
1351;DHT22;669;50.206;9.998;2023-09-19T03:31:00;15.80;56.80
1351;DHT22;669;50.206;9.998;2023-09-19T03:33:28;15.80;59.50
1351;DHT22;669;50.206;9.998;2023-09-19T03:35:58;15.80;59.40
1351;DHT22;669;50.206;9.998;2023-09-19T03:38:27;15.80;60.00
1351;DHT22;669;50.206;9.998;2023-09-19T03:40:57;15.80;60.80
1351;DHT22;669;50.206;9.998;2023-09-19T03:43:25;15.80;61.20
1351;DHT22;669;50.206;9.998;2023-09-19T03:45:53;15.80;63.50
1351;DHT22;669;50.206;9.998;2023-09-19T03:48:21;15.80;64.10
1351;DHT22;669;50.206;9.998;2023-09-19T03:50:49;15.80;63.60
1351;DHT22;669;50.206;9.998;2023-09-19T03:53:17;15.80;63.30
1351;DHT22;669;50.206;9.998;2023-09-19T03:55:45;15.80;63.50
1351;DHT22;669;50.206;9.998;2023-09-19T03:58:15;15.80;63.00
1351;DHT22;669;50.206;9.998;2023-09-19T04:00:43;15.70;63.00
1351;DHT22;669;50.206;9.998;2023-09-19T04:03:11;15.70;63.60
1351;DHT22;669;50.206;9.998;2023-09-19T04:05:46;15.70;62.30
1351;DHT22;669;50.206;9.998;2023-09-19T04:08:14;15.70;60.40
1351;DHT22;669;50.206;9.998;2023-09-19T04:10:42;15.60;59.80
1351;DHT22;669;50.206;9.998;2023-09-19T04:13:12;15.60;59.40
1351;DHT22;669;50.206;9.998;2023-09-19T04:15:42;15.50;58.10
1351;DHT22;669;50.206;9.998;2023-09-19T04:18:10;15.50;57.60
1351;DHT22;669;50.206;9.998;2023-09-19T04:20:38;15.50;58.00
1351;DHT22;669;50.206;9.998;2023-09-19T04:23:06;15.40;57.10
1351;DHT22;669;50.206;9.998;2023-09-19T04:25:34;15.40;57.60
1351;DHT22;669;50.206;9.998;2023-09-19T04:28:04;15.40;57.30
1351;DHT22;669;50.206;9.998;2023-09-19T04:30:33;15.30;57.40
1351;DHT22;669;50.206;9.998;2023-09-19T04:33:02;15.30;57.60
1351;DHT22;669;50.206;9.998;2023-09-19T04:35:34;15.20;58.60
1351;DHT22;669;50.206;9.998;2023-09-19T04:38:02;15.20;59.40
1351;DHT22;669;50.206;9.998;2023-09-19T04:40:32;15.10;59.20
1351;DHT22;669;50.206;9.998;2023-09-19T04:43:01;15.10;58.70
1351;DHT22;669;50.206;9.998;2023-09-19T04:45:29;15.10;57.80
1351;DHT22;669;50.206;9.998;2023-09-19T04:47:57;15.10;57.40
1351;DHT22;669;50.206;9.998;2023-09-19T04:50:26;15.10;56.80
1351;DHT22;669;50.206;9.998;2023-09-19T04:52:55;15.00;55.60
1351;DHT22;669;50.206;9.998;2023-09-19T04:55:23;15.00;54.70
1351;DHT22;669;50.206;9.998;2023-09-19T04:57:51;15.00;54.70
1351;DHT22;669;50.206;9.998;2023-09-19T05:00:21;14.90;54.10
1351;DHT22;669;50.206;9.998;2023-09-19T05:02:51;14.90;53.20
1351;DHT22;669;50.206;9.998;2023-09-19T05:05:19;14.90;52.40
1351;DHT22;669;50.206;9.998;2023-09-19T05:07:50;14.90;52.20
1351;DHT22;669;50.206;9.998;2023-09-19T05:10:21;14.90;50.90
1351;DHT22;669;50.206;9.998;2023-09-19T05:12:53;14.90;50.10
1351;DHT22;669;50.206;9.998;2023-09-19T05:15:21;14.90;49.60
1351;DHT22;669;50.206;9.998;2023-09-19T05:17:49;14.90;50.10
1351;DHT22;669;50.206;9.998;2023-09-19T05:20:22;15.00;50.50
1351;DHT22;669;50.206;9.998;2023-09-19T05:23:02;15.00;49.90
1351;DHT22;669;50.206;9.998;2023-09-19T05:25:32;15.00;50.10
1351;DHT22;669;50.206;9.998;2023-09-19T05:28:04;15.10;50.20
1351;DHT22;669;50.206;9.998;2023-09-19T05:30:33;15.10;50.00
1351;DHT22;669;50.206;9.998;2023-09-19T05:33:03;15.20;51.40
1351;DHT22;669;50.206;9.998;2023-09-19T05:35:31;15.50;52.40
1351;DHT22;669;50.206;9.998;2023-09-19T05:38:01;15.80;48.20
1351;DHT22;669;50.206;9.998;2023-09-19T05:40:29;16.20;44.60
1351;DHT22;669;50.206;9.998;2023-09-19T05:42:57;16.50;34.60
1351;DHT22;669;50.206;9.998;2023-09-19T05:45:25;16.80;29.90
1351;DHT22;669;50.206;9.998;2023-09-19T05:47:54;17.10;28.00
1351;DHT22;669;50.206;9.998;2023-09-19T05:50:28;17.30;25.00
1351;DHT22;669;50.206;9.998;2023-09-19T05:52:56;17.30;22.70
1351;DHT22;669;50.206;9.998;2023-09-19T05:55:26;17.40;20.20
1351;DHT22;669;50.206;9.998;2023-09-19T05:57:55;17.50;19.70
1351;DHT22;669;50.206;9.998;2023-09-19T06:00:24;17.50;19.20
1351;DHT22;669;50.206;9.998;2023-09-19T06:02:54;17.30;19.50
1351;DHT22;669;50.206;9.998;2023-09-19T06:05:24;17.10;19.60
1351;DHT22;669;50.206;9.998;2023-09-19T06:07:53;16.80;20.40
1351;DHT22;669;50.206;9.998;2023-09-19T06:10:22;16.60;20.90
1351;DHT22;669;50.206;9.998;2023-09-19T06:12:51;16.40;24.20
1351;DHT22;669;50.206;9.998;2023-09-19T06:15:20;16.30;24.80
1351;DHT22;669;50.206;9.998;2023-09-19T06:17:52;16.20;24.00
1351;DHT22;669;50.206;9.998;2023-09-19T06:20:22;16.30;25.00
1351;DHT22;669;50.206;9.998;2023-09-19T06:22:51;16.40;24.20
1351;DHT22;669;50.206;9.998;2023-09-19T06:25:19;16.50;23.00
1351;DHT22;669;50.206;9.998;2023-09-19T06:27:51;16.60;21.20
1351;DHT22;669;50.206;9.998;2023-09-19T06:30:21;16.70;20.40
1351;DHT22;669;50.206;9.998;2023-09-19T06:32:55;16.80;20.80
1351;DHT22;669;50.206;9.998;2023-09-19T06:35:24;16.80;19.60
1351;DHT22;669;50.206;9.998;2023-09-19T06:37:53;16.70;20.90
1351;DHT22;669;50.206;9.998;2023-09-19T06:40:21;16.60;21.00
1351;DHT22;669;50.206;9.998;2023-09-19T06:42:51;16.50;21.70
1351;DHT22;669;50.206;9.998;2023-09-19T06:45:20;16.40;22.80
1351;DHT22;669;50.206;9.998;2023-09-19T06:47:50;16.40;25.10
1351;DHT22;669;50.206;9.998;2023-09-19T06:50:19;16.40;25.20
1351;DHT22;669;50.206;9.998;2023-09-19T06:52:50;16.40;24.70
1351;DHT22;669;50.206;9.998;2023-09-19T06:55:19;16.40;24.60
1351;DHT22;669;50.206;9.998;2023-09-19T06:57:48;16.50;22.90
1351;DHT22;669;50.206;9.998;2023-09-19T07:00:18;16.50;20.20
1351;DHT22;669;50.206;9.998;2023-09-19T07:02:55;16.60;21.10
1351;DHT22;669;50.206;9.998;2023-09-19T07:05:24;16.70;18.70
1351;DHT22;669;50.206;9.998;2023-09-19T07:07:52;16.70;18.60
1351;DHT22;669;50.206;9.998;2023-09-19T07:10:21;16.90;18.70
1351;DHT22;669;50.206;9.998;2023-09-19T07:12:55;17.00;20.10
1351;DHT22;669;50.206;9.998;2023-09-19T07:15:25;17.20;19.60
1351;DHT22;669;50.206;9.998;2023-09-19T07:17:53;17.40;19.00
1351;DHT22;669;50.206;9.998;2023-09-19T07:20:24;17.60;18.40
1351;DHT22;669;50.206;9.998;2023-09-19T07:22:53;17.70;17.70
1351;DHT22;669;50.206;9.998;2023-09-19T07:25:22;17.80;13.70
1351;DHT22;669;50.206;9.998;2023-09-19T07:27:50;17.90;12.20
1351;DHT22;669;50.206;9.998;2023-09-19T07:30:18;18.00;13.10
1351;DHT22;669;50.206;9.998;2023-09-19T07:32:48;18.00;12.80
1351;DHT22;669;50.206;9.998;2023-09-19T07:35:16;18.10;9.60
1351;DHT22;669;50.206;9.998;2023-09-19T07:37:46;18.00;9.50
1351;DHT22;669;50.206;9.998;2023-09-19T07:40:17;18.00;10.40
1351;DHT22;669;50.206;9.998;2023-09-19T07:42:45;17.90;12.00
1351;DHT22;669;50.206;9.998;2023-09-19T07:45:14;17.80;11.90
1351;DHT22;669;50.206;9.998;2023-09-19T07:47:44;17.70;10.30
1351;DHT22;669;50.206;9.998;2023-09-19T07:50:15;17.60;12.70
1351;DHT22;669;50.206;9.998;2023-09-19T07:52:46;17.60;12.80
1351;DHT22;669;50.206;9.998;2023-09-19T07:55:14;17.70;10.80
1351;DHT22;669;50.206;9.998;2023-09-19T07:57:43;17.90;11.50
1351;DHT22;669;50.206;9.998;2023-09-19T08:00:12;18.10;10.50
1351;DHT22;669;50.206;9.998;2023-09-19T08:02:42;18.20;7.90
1351;DHT22;669;50.206;9.998;2023-09-19T08:05:12;18.20;6.40
1351;DHT22;669;50.206;9.998;2023-09-19T08:07:45;18.00;5.20
1351;DHT22;669;50.206;9.998;2023-09-19T08:10:16;17.90;6.50
1351;DHT22;669;50.206;9.998;2023-09-19T08:12:47;17.90;7.80
1351;DHT22;669;50.206;9.998;2023-09-19T08:15:17;17.90;6.50
1351;DHT22;669;50.206;9.998;2023-09-19T08:17:46;18.00;7.60
1351;DHT22;669;50.206;9.998;2023-09-19T08:20:15;17.90;6.30
1351;DHT22;669;50.206;9.998;2023-09-19T08:22:47;17.90;6.20
1351;DHT22;669;50.206;9.998;2023-09-19T08:25:16;17.90;6.60
1351;DHT22;669;50.206;9.998;2023-09-19T08:27:45;17.90;5.40
1351;DHT22;669;50.206;9.998;2023-09-19T08:30:15;17.90;4.70
1351;DHT22;669;50.206;9.998;2023-09-19T08:32:43;17.90;5.60
1351;DHT22;669;50.206;9.998;2023-09-19T08:35:13;17.90;4.70
1351;DHT22;669;50.206;9.998;2023-09-19T08:37:42;18.00;4.80
1351;DHT22;669;50.206;9.998;2023-09-19T08:40:13;18.00;4.80
1351;DHT22;669;50.206;9.998;2023-09-19T08:42:51;18.00;1.00
1351;DHT22;669;50.206;9.998;2023-09-19T08:45:20;18.00;1.00
1351;DHT22;669;50.206;9.998;2023-09-19T08:47:56;17.90;1.70
1351;DHT22;669;50.206;9.998;2023-09-19T08:50:27;18.00;1.40
1351;DHT22;669;50.206;9.998;2023-09-19T08:52:56;18.10;1.00
1351;DHT22;669;50.206;9.998;2023-09-19T08:55:29;18.10;1.00
1351;DHT22;669;50.206;9.998;2023-09-19T08:58:00;18.10;1.00
1351;DHT22;669;50.206;9.998;2023-09-19T09:00:30;18.10;1.00
1351;DHT22;669;50.206;9.998;2023-09-19T09:02:59;18.00;1.00
1351;DHT22;669;50.206;9.998;2023-09-19T09:05:29;17.90;1.00
1351;DHT22;669;50.206;9.998;2023-09-19T09:07:59;18.00;1.40
1351;DHT22;669;50.206;9.998;2023-09-19T09:10:29;18.10;1.00
1351;DHT22;669;50.206;9.998;2023-09-19T09:12:58;18.20;1.50
1351;DHT22;669;50.206;9.998;2023-09-19T09:15:28;18.30;2.30
1351;DHT22;669;50.206;9.998;2023-09-19T09:17:57;18.30;1.00
1351;DHT22;669;50.206;9.998;2023-09-19T09:20:26;18.40;1.00
1351;DHT22;669;50.206;9.998;2023-09-19T09:22:55;18.40;1.00
1351;DHT22;669;50.206;9.998;2023-09-19T09:25:53;18.40;1.00
1351;DHT22;669;50.206;9.998;2023-09-19T09:28:27;18.50;1.00
1351;DHT22;669;50.206;9.998;2023-09-19T09:30:55;18.60;1.00
1351;DHT22;669;50.206;9.998;2023-09-19T09:33:25;18.50;1.00
1351;DHT22;669;50.206;9.998;2023-09-19T09:35:56;18.50;1.00
1351;DHT22;669;50.206;9.998;2023-09-19T09:38:28;18.40;1.00
1351;DHT22;669;50.206;9.998;2023-09-19T09:41:00;18.50;1.00
1351;DHT22;669;50.206;9.998;2023-09-19T09:43:35;18.50;1.00
1351;DHT22;669;50.206;9.998;2023-09-19T09:46:08;18.60;1.00
1351;DHT22;669;50.206;9.998;2023-09-19T09:49:02;18.80;1.00
1351;DHT22;669;50.206;9.998;2023-09-19T09:51:43;19.30;1.00
1351;DHT22;669;50.206;9.998;2023-09-19T09:54:15;19.70;1.00
1351;DHT22;669;50.206;9.998;2023-09-19T09:56:55;19.90;1.00
1351;DHT22;669;50.206;9.998;2023-09-19T09:59:46;20.20;1.00
1351;DHT22;669;50.206;9.998;2023-09-19T10:02:15;20.30;1.00
1351;DHT22;669;50.206;9.998;2023-09-19T10:04:48;20.40;1.00
1351;DHT22;669;50.206;9.998;2023-09-19T10:07:27;20.60;1.00
1351;DHT22;669;50.206;9.998;2023-09-19T10:10:01;20.50;1.00
1351;DHT22;669;50.206;9.998;2023-09-19T10:12:43;20.70;1.00
1351;DHT22;669;50.206;9.998;2023-09-19T10:15:12;21.00;1.00
1351;DHT22;669;50.206;9.998;2023-09-19T10:17:43;21.20;1.00
1351;DHT22;669;50.206;9.998;2023-09-19T10:20:13;21.50;1.00
1351;DHT22;669;50.206;9.998;2023-09-19T10:23:03;21.60;1.00
1351;DHT22;669;50.206;9.998;2023-09-19T10:25:37;21.80;1.00
1351;DHT22;669;50.206;9.998;2023-09-19T10:28:08;21.80;1.00
1351;DHT22;669;50.206;9.998;2023-09-19T10:30:41;21.90;1.00
1351;DHT22;669;50.206;9.998;2023-09-19T10:33:11;21.90;1.00
1351;DHT22;669;50.206;9.998;2023-09-19T10:35:42;22.00;1.00
1351;DHT22;669;50.206;9.998;2023-09-19T10:38:12;21.90;1.00
1351;DHT22;669;50.206;9.998;2023-09-19T10:40:44;21.90;1.00
1351;DHT22;669;50.206;9.998;2023-09-19T10:43:19;21.90;1.00
1351;DHT22;669;50.206;9.998;2023-09-19T10:45:49;21.90;1.00
1351;DHT22;669;50.206;9.998;2023-09-19T10:48:20;21.90;1.00
1351;DHT22;669;50.206;9.998;2023-09-19T10:50:58;21.80;1.00
1351;DHT22;669;50.206;9.998;2023-09-19T10:53:29;21.90;1.00
1351;DHT22;669;50.206;9.998;2023-09-19T10:55:59;22.20;1.00
1351;DHT22;669;50.206;9.998;2023-09-19T10:58:38;22.40;1.00
1351;DHT22;669;50.206;9.998;2023-09-19T11:01:07;22.40;1.00
1351;DHT22;669;50.206;9.998;2023-09-19T11:03:39;22.10;1.00
1351;DHT22;669;50.206;9.998;2023-09-19T11:06:12;22.00;1.00
1351;DHT22;669;50.206;9.998;2023-09-19T11:08:53;22.00;1.00
1351;DHT22;669;50.206;9.998;2023-09-19T11:11:46;22.00;1.00
1351;DHT22;669;50.206;9.998;2023-09-19T11:14:45;21.80;1.00
1351;DHT22;669;50.206;9.998;2023-09-19T11:17:41;22.00;1.00
1351;DHT22;669;50.206;9.998;2023-09-19T11:20:22;22.00;1.00
1351;DHT22;669;50.206;9.998;2023-09-19T11:23:19;22.20;1.00
1351;DHT22;669;50.206;9.998;2023-09-19T11:25:50;22.30;1.00
1351;DHT22;669;50.206;9.998;2023-09-19T11:28:30;22.50;1.00
1351;DHT22;669;50.206;9.998;2023-09-19T11:34:43;22.70;1.00
1351;DHT22;669;50.206;9.998;2023-09-19T11:40:29;22.40;1.00
1351;DHT22;669;50.206;9.998;2023-09-19T11:42:57;22.40;1.00
1351;DHT22;669;50.206;9.998;2023-09-19T11:48:35;23.10;1.00
1351;DHT22;669;50.206;9.998;2023-09-19T11:51:16;23.40;1.00
1351;DHT22;669;50.206;9.998;2023-09-19T11:53:50;23.50;1.00
1351;DHT22;669;50.206;9.998;2023-09-19T11:56:19;23.40;1.00
1351;DHT22;669;50.206;9.998;2023-09-19T11:58:50;23.10;1.00
1351;DHT22;669;50.206;9.998;2023-09-19T12:01:22;22.90;1.00
1351;DHT22;669;50.206;9.998;2023-09-19T12:03:55;22.80;1.00
1351;DHT22;669;50.206;9.998;2023-09-19T12:06:25;22.90;1.00
1351;DHT22;669;50.206;9.998;2023-09-19T12:08:54;23.20;1.00
1351;DHT22;669;50.206;9.998;2023-09-19T12:11:27;23.20;1.00
1351;DHT22;669;50.206;9.998;2023-09-19T12:13:55;22.90;1.00
1351;DHT22;669;50.206;9.998;2023-09-19T12:16:27;22.60;1.00
1351;DHT22;669;50.206;9.998;2023-09-19T12:19:17;22.60;1.00
1351;DHT22;669;50.206;9.998;2023-09-19T12:21:56;22.70;1.00
1351;DHT22;669;50.206;9.998;2023-09-19T12:24:27;22.80;1.00
1351;DHT22;669;50.206;9.998;2023-09-19T12:27:01;23.10;1.00
1351;DHT22;669;50.206;9.998;2023-09-19T12:29:32;23.00;1.00
1351;DHT22;669;50.206;9.998;2023-09-19T12:32:01;22.90;1.00
1351;DHT22;669;50.206;9.998;2023-09-19T12:34:33;22.80;1.00
1351;DHT22;669;50.206;9.998;2023-09-19T12:37:06;22.70;1.00
1351;DHT22;669;50.206;9.998;2023-09-19T12:39:39;22.80;1.00
1351;DHT22;669;50.206;9.998;2023-09-19T12:42:10;22.70;1.00
1351;DHT22;669;50.206;9.998;2023-09-19T12:44:42;22.50;1.00
1351;DHT22;669;50.206;9.998;2023-09-19T12:47:12;22.50;1.00
1351;DHT22;669;50.206;9.998;2023-09-19T12:50:12;22.40;1.00
1351;DHT22;669;50.206;9.998;2023-09-19T12:52:43;22.30;1.00
1351;DHT22;669;50.206;9.998;2023-09-19T12:55:22;22.40;1.00
1351;DHT22;669;50.206;9.998;2023-09-19T12:57:58;22.50;1.00
1351;DHT22;669;50.206;9.998;2023-09-19T13:00:34;22.70;1.00
1351;DHT22;669;50.206;9.998;2023-09-19T13:03:18;22.70;1.00
1351;DHT22;669;50.206;9.998;2023-09-19T13:05:56;22.90;1.00
1351;DHT22;669;50.206;9.998;2023-09-19T13:08:27;23.00;1.00
1351;DHT22;669;50.206;9.998;2023-09-19T13:11:06;23.00;1.00
1351;DHT22;669;50.206;9.998;2023-09-19T13:13:41;23.00;1.00
1351;DHT22;669;50.206;9.998;2023-09-19T13:16:14;22.60;1.00
1351;DHT22;669;50.206;9.998;2023-09-19T13:18:48;22.20;1.00
1351;DHT22;669;50.206;9.998;2023-09-19T13:21:33;22.20;1.00
1351;DHT22;669;50.206;9.998;2023-09-19T13:24:20;22.00;1.00
1351;DHT22;669;50.206;9.998;2023-09-19T13:26:48;22.00;1.00
1351;DHT22;669;50.206;9.998;2023-09-19T13:29:16;21.90;1.00
1351;DHT22;669;50.206;9.998;2023-09-19T13:31:48;21.90;1.00
1351;DHT22;669;50.206;9.998;2023-09-19T13:34:16;21.90;1.00
1351;DHT22;669;50.206;9.998;2023-09-19T13:36:46;21.80;1.00
1351;DHT22;669;50.206;9.998;2023-09-19T13:39:15;21.80;1.00
1351;DHT22;669;50.206;9.998;2023-09-19T13:41:44;21.70;1.00
1351;DHT22;669;50.206;9.998;2023-09-19T13:44:13;21.60;1.00
1351;DHT22;669;50.206;9.998;2023-09-19T13:46:41;21.70;1.00
1351;DHT22;669;50.206;9.998;2023-09-19T13:49:13;21.70;1.00
1351;DHT22;669;50.206;9.998;2023-09-19T13:51:41;21.70;1.00
1351;DHT22;669;50.206;9.998;2023-09-19T13:54:12;21.90;1.00
1351;DHT22;669;50.206;9.998;2023-09-19T13:56:41;22.00;1.00
1351;DHT22;669;50.206;9.998;2023-09-19T13:59:09;22.10;1.00
1351;DHT22;669;50.206;9.998;2023-09-19T14:01:37;22.10;1.00
1351;DHT22;669;50.206;9.998;2023-09-19T14:04:06;22.00;1.00
1351;DHT22;669;50.206;9.998;2023-09-19T14:06:34;21.70;1.00
1351;DHT22;669;50.206;9.998;2023-09-19T14:09:04;21.60;1.00
1351;DHT22;669;50.206;9.998;2023-09-19T14:11:33;21.50;1.00
1351;DHT22;669;50.206;9.998;2023-09-19T14:14:01;21.50;1.00
1351;DHT22;669;50.206;9.998;2023-09-19T14:16:31;21.60;1.00
1351;DHT22;669;50.206;9.998;2023-09-19T14:19:00;21.70;1.00
1351;DHT22;669;50.206;9.998;2023-09-19T14:21:28;21.90;1.00
1351;DHT22;669;50.206;9.998;2023-09-19T14:23:56;21.90;1.00
1351;DHT22;669;50.206;9.998;2023-09-19T14:26:24;21.80;1.00
1351;DHT22;669;50.206;9.998;2023-09-19T14:28:53;21.80;1.00
1351;DHT22;669;50.206;9.998;2023-09-19T14:31:21;21.80;1.00
1351;DHT22;669;50.206;9.998;2023-09-19T14:33:53;21.60;1.00
1351;DHT22;669;50.206;9.998;2023-09-19T14:36:22;21.50;1.00
1351;DHT22;669;50.206;9.998;2023-09-19T14:38:53;21.30;1.00
1351;DHT22;669;50.206;9.998;2023-09-19T14:41:22;21.10;1.00
1351;DHT22;669;50.206;9.998;2023-09-19T14:43:53;21.00;1.00
1351;DHT22;669;50.206;9.998;2023-09-19T14:46:22;21.20;1.00
1351;DHT22;669;50.206;9.998;2023-09-19T14:48:51;21.30;1.00
1351;DHT22;669;50.206;9.998;2023-09-19T14:51:19;21.40;1.00
1351;DHT22;669;50.206;9.998;2023-09-19T14:53:47;21.50;1.00
1351;DHT22;669;50.206;9.998;2023-09-19T14:56:16;21.50;1.00
1351;DHT22;669;50.206;9.998;2023-09-19T14:58:47;21.50;1.00
1351;DHT22;669;50.206;9.998;2023-09-19T15:01:17;21.50;1.00
1351;DHT22;669;50.206;9.998;2023-09-19T15:03:46;21.50;1.00
1351;DHT22;669;50.206;9.998;2023-09-19T15:06:15;21.30;1.00
1351;DHT22;669;50.206;9.998;2023-09-19T15:08:47;21.30;1.00
1351;DHT22;669;50.206;9.998;2023-09-19T15:11:17;21.30;1.00
1351;DHT22;669;50.206;9.998;2023-09-19T15:13:48;21.30;1.00
1351;DHT22;669;50.206;9.998;2023-09-19T15:16:19;21.30;1.00
1351;DHT22;669;50.206;9.998;2023-09-19T15:18:47;21.30;1.00
1351;DHT22;669;50.206;9.998;2023-09-19T15:21:15;21.30;1.00
1351;DHT22;669;50.206;9.998;2023-09-19T15:23:44;21.30;1.00
1351;DHT22;669;50.206;9.998;2023-09-19T15:26:14;21.20;1.00
1351;DHT22;669;50.206;9.998;2023-09-19T15:28:44;20.90;1.00
1351;DHT22;669;50.206;9.998;2023-09-19T15:31:12;20.80;1.00
1351;DHT22;669;50.206;9.998;2023-09-19T15:33:42;20.70;1.00
1351;DHT22;669;50.206;9.998;2023-09-19T15:36:11;20.70;1.00
1351;DHT22;669;50.206;9.998;2023-09-19T15:38:56;20.60;1.00
1351;DHT22;669;50.206;9.998;2023-09-19T15:41:25;20.60;1.00
1351;DHT22;669;50.206;9.998;2023-09-19T15:43:54;20.50;1.00
1351;DHT22;669;50.206;9.998;2023-09-19T15:46:23;20.50;1.00
1351;DHT22;669;50.206;9.998;2023-09-19T15:48:54;20.50;1.00
1351;DHT22;669;50.206;9.998;2023-09-19T15:51:22;20.40;1.00
1351;DHT22;669;50.206;9.998;2023-09-19T15:53:52;20.40;1.00
1351;DHT22;669;50.206;9.998;2023-09-19T15:56:21;20.30;1.00
1351;DHT22;669;50.206;9.998;2023-09-19T15:58:51;20.20;1.00
1351;DHT22;669;50.206;9.998;2023-09-19T16:01:21;20.10;1.00
1351;DHT22;669;50.206;9.998;2023-09-19T16:03:51;20.00;1.00
1351;DHT22;669;50.206;9.998;2023-09-19T16:06:23;19.90;1.00
1351;DHT22;669;50.206;9.998;2023-09-19T16:08:53;19.90;1.00
1351;DHT22;669;50.206;9.998;2023-09-19T16:11:23;19.80;1.00
1351;DHT22;669;50.206;9.998;2023-09-19T16:13:52;19.80;1.00
1351;DHT22;669;50.206;9.998;2023-09-19T16:16:21;19.70;1.00
1351;DHT22;669;50.206;9.998;2023-09-19T16:18:51;19.70;1.00
1351;DHT22;669;50.206;9.998;2023-09-19T16:21:21;19.60;1.00
1351;DHT22;669;50.206;9.998;2023-09-19T16:23:50;19.50;1.00
1351;DHT22;669;50.206;9.998;2023-09-19T16:26:21;19.50;1.00
1351;DHT22;669;50.206;9.998;2023-09-19T16:28:51;19.40;1.00
1351;DHT22;669;50.206;9.998;2023-09-19T16:31:20;19.30;1.00
1351;DHT22;669;50.206;9.998;2023-09-19T16:33:48;19.30;1.00
1351;DHT22;669;50.206;9.998;2023-09-19T16:36:17;19.20;1.00
1351;DHT22;669;50.206;9.998;2023-09-19T16:38:48;19.20;1.00
1351;DHT22;669;50.206;9.998;2023-09-19T16:41:17;19.20;1.00
1351;DHT22;669;50.206;9.998;2023-09-19T16:43:46;19.10;1.00
1351;DHT22;669;50.206;9.998;2023-09-19T16:46:14;19.00;1.00
1351;DHT22;669;50.206;9.998;2023-09-19T16:48:45;19.00;1.00
1351;DHT22;669;50.206;9.998;2023-09-19T16:51:17;18.90;1.00
1351;DHT22;669;50.206;9.998;2023-09-19T16:53:45;18.90;1.00
1351;DHT22;669;50.206;9.998;2023-09-19T16:56:14;18.80;1.00
1351;DHT22;669;50.206;9.998;2023-09-19T16:58:47;18.80;1.00
1351;DHT22;669;50.206;9.998;2023-09-19T17:01:17;18.70;1.00
1351;DHT22;669;50.206;9.998;2023-09-19T17:03:47;18.60;1.00
1351;DHT22;669;50.206;9.998;2023-09-19T17:06:17;18.60;1.00